Time;durP1;ratioP1;P1;durP2;ratioP2;P2;SDS_P1;SDS_P2;PMS_P1;PMS_P2;Temp;Humidity;BMP_temperature;BMP_pressure;BME280_temperature;BME280_humidity;BME280_pressure;Samples;Min_cycle;Max_cycle;Signal;HPM_P1;HPM_P2
2023/03/13 00:00:30;;;;;;;8.50;5.40;;;;;;;4.47;67.24;98325.34;218631;1297;22544;-76
2023/03/13 00:05:34;;;;;;;7.70;5.20;;;;;;;4.50;67.81;98316.48;218475;1292;25304;-76
2023/03/13 00:10:46;;;;;;;5.50;4.40;;;;;;;4.53;68.12;98313.92;218610;1293;22546;-77
2023/03/13 00:16:09;;;;;;;5.90;4.70;;;;;;;4.55;68.48;98300.32;218284;1289;22624;-75
2023/03/13 00:21:12;;;;;;;7.50;4.60;;;;;;;4.57;68.84;98300.36;218519;1295;24256;-76
2023/03/13 00:26:17;;;;;;;9.10;5.30;;;;;;;4.60;69.00;98300.94;218564;1287;22549;-76
2023/03/13 00:31:21;;;;;;;4.60;4.00;;;;;;;4.62;69.34;98292.54;218728;1297;25370;-76
2023/03/13 00:36:27;;;;;;;7.30;4.20;;;;;;;4.64;69.55;98282.56;218706;1296;25386;-76
2023/03/13 00:41:49;;;;;;;7.00;5.10;;;;;;;4.67;69.74;98274.23;218547;1296;25388;-76
2023/03/13 00:46:53;;;;;;;5.80;4.40;;;;;;;4.69;69.90;98266.25;218606;1297;22551;-76
2023/03/13 00:52:01;;;;;;;7.80;5.10;;;;;;;4.71;69.89;98273.13;218487;1296;22559;-76
2023/03/13 00:57:04;;;;;;;5.20;4.00;;;;;;;4.73;70.12;98261.98;218311;1295;23828;-75
2023/03/13 01:02:06;;;;;;;5.50;4.10;;;;;;;4.73;70.32;98256.55;218229;1295;25388;-76
2023/03/13 01:07:09;;;;;;;7.90;4.70;;;;;;;4.73;70.38;98263.88;218291;1295;25317;-76
2023/03/13 01:12:14;;;;;;;7.10;4.80;;;;;;;4.73;70.67;98278.00;218560;1297;25512;-76
2023/03/13 01:17:16;;;;;;;6.10;4.30;;;;;;;4.73;70.79;98275.88;218693;1297;22575;-76
2023/03/13 01:22:18;;;;;;;6.90;4.80;;;;;;;4.74;71.19;98285.80;218613;1295;25303;-75
2023/03/13 01:27:22;;;;;;;5.50;4.10;;;;;;;4.75;71.25;98291.73;218541;1297;23030;-76
2023/03/13 01:32:27;;;;;;;7.20;4.70;;;;;;;4.75;71.67;98289.65;218719;1297;24393;-75
2023/03/13 01:37:29;;;;;;;7.10;5.10;;;;;;;4.75;71.92;98278.98;218694;1297;22554;-76
2023/03/13 01:42:48;;;;;;;6.70;5.10;;;;;;;4.77;72.11;98279.27;218410;1292;22563;-76
2023/03/13 01:47:51;;;;;;;6.60;5.00;;;;;;;4.78;72.28;98279.85;218327;1295;22543;-75
2023/03/13 01:53:03;;;;;;;5.80;4.60;;;;;;;4.79;72.27;98274.55;218445;1295;25421;-77
2023/03/13 01:58:05;;;;;;;5.40;3.80;;;;;;;4.81;72.85;98268.80;218704;1293;24400;-78
2023/03/13 02:03:13;;;;;;;6.90;4.70;;;;;;;4.82;72.96;98267.59;218329;1296;24286;-76
2023/03/13 02:08:22;;;;;;;5.10;4.30;;;;;;;4.85;73.35;98266.91;218371;1293;22700;-75
2023/03/13 02:13:27;;;;;;;5.50;4.20;;;;;;;4.88;73.60;98271.81;218559;1294;24288;-76
2023/03/13 02:18:29;;;;;;;5.70;4.60;;;;;;;4.91;73.99;98274.81;218749;1293;22962;-76
2023/03/13 02:23:43;;;;;;;6.00;5.00;;;;;;;4.92;74.07;98279.19;218684;1295;24272;-76
2023/03/13 02:28:49;;;;;;;8.10;4.70;;;;;;;4.95;74.20;98290.79;218371;1297;22542;-77
2023/03/13 02:33:57;;;;;;;5.60;5.10;;;;;;;4.97;74.50;98296.70;218469;1297;22560;-78
2023/03/13 02:39:03;;;;;;;4.70;4.20;;;;;;;4.99;74.78;98293.63;218471;1292;24302;-76
2023/03/13 02:44:09;;;;;;;5.40;4.70;;;;;;;5.01;75.16;98299.27;218279;1297;22545;-76
2023/03/13 02:49:27;;;;;;;6.30;5.50;;;;;;;5.01;75.12;98301.81;218208;1295;25414;-77
2023/03/13 02:54:34;;;;;;;7.00;6.30;;;;;;;5.05;75.18;98309.50;218671;1292;22729;-76
2023/03/13 02:59:43;;;;;;;6.60;5.60;;;;;;;5.07;75.63;98317.27;218408;1279;22559;-77
2023/03/13 03:04:46;;;;;;;6.70;5.10;;;;;;;5.09;75.51;98313.39;218727;1292;24411;-76
2023/03/13 03:09:49;;;;;;;5.80;4.50;;;;;;;5.10;75.48;98302.45;218660;1296;22546;-76
2023/03/13 03:14:53;;;;;;;6.50;5.20;;;;;;;5.10;75.74;98308.02;218491;1295;25502;-76
2023/03/13 03:19:56;;;;;;;6.30;5.50;;;;;;;5.12;76.00;98316.66;218341;1296;24746;-76
2023/03/13 03:24:59;;;;;;;6.80;5.40;;;;;;;5.15;76.14;98315.00;218324;1296;22612;-77
2023/03/13 03:30:04;;;;;;;6.50;5.50;;;;;;;5.17;75.93;98315.69;218769;1295;22561;-76
2023/03/13 03:35:11;;;;;;;5.70;4.80;;;;;;;5.19;76.11;98316.10;218811;1296;25303;-76
2023/03/13 03:40:17;;;;;;;9.30;5.60;;;;;;;5.22;76.25;98311.92;218557;1292;24877;-77
2023/03/13 03:45:19;;;;;;;7.80;5.10;;;;;;;5.25;76.25;98307.61;218482;1296;25491;-76
2023/03/13 03:50:22;;;;;;;6.60;5.30;;;;;;;5.28;76.49;98307.64;218683;1290;22578;-75
2023/03/13 03:55:29;;;;;;;8.60;5.70;;;;;;;5.31;76.74;98303.65;218583;1297;24305;-77
2023/03/13 04:00:32;;;;;;;7.10;4.90;;;;;;;5.35;76.82;98296.10;218435;1297;22682;-77
2023/03/13 04:05:41;;;;;;;8.10;5.40;;;;;;;5.40;77.27;98298.48;218358;1297;22539;-77
2023/03/13 04:10:44;;;;;;;6.50;5.10;;;;;;;5.45;77.18;98302.08;218713;1297;22570;-76
2023/03/13 04:15:49;;;;;;;8.80;6.60;;;;;;;5.49;77.38;98299.09;218682;1297;24337;-76
2023/03/13 04:21:02;;;;;;;7.50;5.70;;;;;;;5.51;77.23;98296.84;218458;1297;23795;-77
2023/03/13 04:26:12;;;;;;;7.70;6.10;;;;;;;5.53;77.45;98294.91;218220;1296;23823;-75
2023/03/13 04:31:15;;;;;;;6.30;5.30;;;;;;;5.55;77.30;98293.46;218796;1297;24341;-77
2023/03/13 04:36:35;;;;;;;7.80;5.20;;;;;;;5.57;77.54;98289.11;218319;1279;23813;-77
2023/03/13 04:42:20;;;;;;;6.80;5.90;;;;;;;5.57;77.51;98283.45;217585;1297;22547;-76
2023/03/13 04:48:02;;;;;;;6.70;5.00;;;;;;;5.57;77.57;98283.61;216981;1303;22559;-77
2023/03/13 04:53:16;;;;;;;7.00;4.50;;;;;;;5.57;77.51;98278.40;218240;1297;22552;-79
2023/03/13 04:59:02;;;;;;;8.70;5.90;;;;;;;5.58;77.76;98272.02;218012;1297;22562;-76
2023/03/13 05:04:30;;;;;;;7.70;5.70;;;;;;;5.58;77.60;98274.83;217541;1295;25792;-77
2023/03/13 05:09:51;;;;;;;9.00;6.40;;;;;;;5.57;77.65;98277.88;217301;1301;24279;-77
2023/03/13 05:15:18;;;;;;;9.20;6.20;;;;;;;5.56;77.82;98278.50;217389;1302;22668;-77
2023/03/13 05:20:29;;;;;;;8.00;5.80;;;;;;;5.55;77.53;98278.83;217224;1301;24420;-76
2023/03/13 05:25:42;;;;;;;10.10;6.20;;;;;;;5.54;77.48;98278.08;217442;1302;22556;-77
2023/03/13 05:30:55;;;;;;;6.40;5.30;;;;;;;5.52;77.69;98274.73;217324;1286;22559;-76
2023/03/13 05:36:18;;;;;;;8.40;5.30;;;;;;;5.52;77.69;98274.17;218240;1297;22687;-76
2023/03/13 05:41:39;;;;;;;8.20;5.00;;;;;;;5.51;77.85;98268.55;218438;1293;24260;-76
2023/03/13 05:46:52;;;;;;;6.40;4.40;;;;;;;5.53;77.94;98267.63;218682;1296;24139;-76
2023/03/13 05:52:14;;;;;;;7.40;5.80;;;;;;;5.60;77.95;98262.91;218513;1293;26455;-76
2023/03/13 05:57:42;;;;;;;6.60;4.50;;;;;;;5.69;77.89;98248.09;218560;1297;22667;-77
2023/03/13 06:03:02;;;;;;;7.70;4.80;;;;;;;5.78;77.90;98241.83;218617;1297;24270;-78
2023/03/13 06:08:09;;;;;;;8.70;5.80;;;;;;;5.87;77.92;98241.05;218561;1293;23918;-77
2023/03/13 06:13:12;;;;;;;7.90;5.50;;;;;;;5.93;78.03;98237.40;218695;1276;24413;-77
2023/03/13 06:18:26;;;;;;;7.00;5.20;;;;;;;5.99;78.00;98239.13;218750;1291;25264;-78
2023/03/13 06:23:38;;;;;;;8.50;6.10;;;;;;;6.11;77.93;98242.70;218619;1297;24399;-78
2023/03/13 06:28:41;;;;;;;9.40;5.90;;;;;;;6.27;77.93;98240.84;218650;1297;24282;-76
2023/03/13 06:33:44;;;;;;;9.20;6.00;;;;;;;6.51;77.77;98238.95;218497;1290;24259;-76
2023/03/13 06:38:48;;;;;;;9.40;6.40;;;;;;;6.76;77.23;98238.66;218602;1290;24540;-77
2023/03/13 06:43:50;;;;;;;8.20;5.50;;;;;;;7.02;76.98;98234.84;218837;1292;24301;-77
2023/03/13 06:48:52;;;;;;;8.30;6.00;;;;;;;7.23;76.32;98235.11;218551;1295;22692;-77
2023/03/13 06:53:54;;;;;;;10.40;6.50;;;;;;;7.41;76.15;98231.27;218702;1292;22670;-77
2023/03/13 06:59:00;;;;;;;11.70;7.80;;;;;;;7.59;76.04;98222.95;218559;1289;22838;-77
2023/03/13 07:04:03;;;;;;;9.70;6.00;;;;;;;7.73;75.69;98219.92;218921;1283;22603;-78
2023/03/13 07:09:05;;;;;;;7.60;6.10;;;;;;;7.77;75.28;98222.52;219424;1279;22581;-79
2023/03/13 07:14:10;;;;;;;8.10;4.80;;;;;;;7.76;75.20;98216.65;219183;1283;25309;-77
2023/03/13 07:19:18;;;;;;;9.40;6.00;;;;;;;7.75;75.05;98209.06;219092;1283;24264;-76
2023/03/13 07:24:21;;;;;;;8.10;5.90;;;;;;;7.81;75.45;98202.59;219110;1283;22588;-76
2023/03/13 07:29:24;;;;;;;10.10;6.90;;;;;;;7.93;75.49;98195.16;218897;1289;25357;-75
2023/03/13 07:34:26;;;;;;;8.30;6.00;;;;;;;8.09;75.33;98180.92;219079;1281;25375;-76
2023/03/13 07:39:28;;;;;;;7.80;5.50;;;;;;;8.28;75.29;98179.66;218816;1283;22591;-76
2023/03/13 07:44:32;;;;;;;7.40;5.70;;;;;;;8.53;74.78;98177.92;219048;1283;22605;-76
2023/03/13 07:49:39;;;;;;;8.90;5.20;;;;;;;8.78;74.22;98166.45;219197;1283;22557;-77
2023/03/13 07:54:47;;;;;;;6.50;4.80;;;;;;;9.00;74.12;98158.34;218957;1277;25405;-77
2023/03/13 07:59:49;;;;;;;11.10;5.30;;;;;;;9.23;73.21;98156.21;219063;1289;23100;-76
2023/03/13 08:04:54;;;;;;;8.90;4.50;;;;;;;9.42;72.83;98161.86;218737;1289;22583;-77
2023/03/13 08:10:00;;;;;;;8.70;4.60;;;;;;;9.56;72.39;98169.67;218932;1276;24814;-77
2023/03/13 08:15:03;;;;;;;7.10;4.40;;;;;;;9.74;72.48;98168.77;219025;1295;22563;-77
2023/03/13 08:20:11;;;;;;;7.80;4.30;;;;;;;9.91;71.73;98167.08;219145;1276;24409;-77
2023/03/13 08:25:13;;;;;;;4.90;3.70;;;;;;;10.04;71.52;98159.08;219138;1289;23534;-77
2023/03/13 08:30:16;;;;;;;7.80;4.20;;;;;;;10.10;70.76;98154.38;218912;1279;22597;-78
2023/03/13 08:35:22;;;;;;;6.00;3.70;;;;;;;10.19;70.63;98148.08;219323;1282;24523;-76
2023/03/13 08:40:25;;;;;;;5.50;3.40;;;;;;;10.37;70.23;98144.65;219056;1289;24681;-76
2023/03/13 08:45:28;;;;;;;7.80;3.20;;;;;;;10.57;69.84;98139.94;218970;1289;23730;-79
2023/03/13 08:50:33;;;;;;;7.00;3.40;;;;;;;10.68;69.01;98139.77;219286;1289;22549;-76
2023/03/13 08:55:43;;;;;;;7.60;3.70;;;;;;;10.84;68.91;98129.81;219314;1274;25516;-75
2023/03/13 09:00:45;;;;;;;8.60;4.10;;;;;;;11.01;68.93;98123.40;218820;1292;22559;-75
2023/03/13 09:05:48;;;;;;;4.40;3.00;;;;;;;11.15;67.88;98128.92;219140;1282;22700;-76
2023/03/13 09:11:04;;;;;;;7.80;4.00;;;;;;;11.19;67.59;98128.92;219207;1289;23143;-76
2023/03/13 09:16:09;;;;;;;6.20;3.50;;;;;;;11.23;67.38;98123.42;219063;1287;21754;-76
2023/03/13 09:21:16;;;;;;;5.50;3.00;;;;;;;11.33;67.65;98123.27;218950;1292;24264;-74
2023/03/13 09:26:20;;;;;;;5.70;3.40;;;;;;;11.54;66.90;98113.86;219585;1286;25366;-76
2023/03/13 09:31:32;;;;;;;3.70;2.50;;;;;;;11.74;66.92;98109.17;219312;1295;25389;-75
2023/03/13 09:36:35;;;;;;;4.20;2.40;;;;;;;12.11;67.28;98103.35;218942;1289;22659;-76
2023/03/13 09:41:46;;;;;;;7.30;3.20;;;;;;;12.52;66.12;98103.73;219003;1283;23316;-76
2023/03/13 09:47:04;;;;;;;7.10;3.20;;;;;;;12.70;64.85;98102.19;219239;1289;23176;-76
2023/03/13 09:52:24;;;;;;;5.70;2.80;;;;;;;12.72;64.17;98108.56;219063;1289;22999;-76
2023/03/13 09:57:33;;;;;;;5.70;2.70;;;;;;;12.60;63.32;98100.77;219247;1276;22865;-77
2023/03/13 10:02:55;;;;;;;6.10;3.10;;;;;;;12.44;63.57;98093.40;219202;1295;23828;-77
2023/03/13 10:08:14;;;;;;;6.70;3.30;;;;;;;12.34;63.89;98068.94;219176;1291;23808;-77
2023/03/13 10:13:29;;;;;;;5.70;2.80;;;;;;;12.40;64.15;98058.80;219089;1289;22565;-79
2023/03/13 10:18:32;;;;;;;5.40;2.80;;;;;;;12.54;63.67;98052.06;219264;1275;24290;-77
2023/03/13 10:24:02;;;;;;;5.40;2.50;;;;;;;12.67;63.20;98041.30;219076;1283;22557;-75
2023/03/13 10:29:28;;;;;;;8.30;3.20;;;;;;;12.67;62.96;98036.52;219295;1289;23812;-77
2023/03/13 10:34:59;;;;;;;5.00;2.60;;;;;;;12.68;62.61;98026.96;219323;1277;22549;-77
2023/03/13 10:40:26;;;;;;;3.70;2.10;;;;;;;12.78;62.67;98028.45;219016;1276;22556;-76
2023/03/13 10:45:34;;;;;;;6.70;2.40;;;;;;;12.81;62.08;98023.32;219026;1293;22562;-76
2023/03/13 10:50:42;;;;;;;7.00;3.00;;;;;;;12.85;62.09;98018.52;219027;1292;22549;-76
2023/03/13 10:55:44;;;;;;;7.90;2.70;;;;;;;12.89;61.92;98000.39;219112;1297;22735;-77
2023/03/13 11:00:47;;;;;;;6.00;2.60;;;;;;;12.99;61.88;97985.14;218919;1289;22786;-77
2023/03/13 11:05:58;;;;;;;5.50;2.70;;;;;;;13.02;61.54;97975.73;219034;1297;25431;-76
2023/03/13 11:11:15;;;;;;;7.40;2.70;;;;;;;12.96;61.57;97960.86;219620;1289;22508;-77
2023/03/13 11:16:31;;;;;;;6.70;2.60;;;;;;;12.93;61.98;97946.04;215425;1276;5380567;-78
2023/03/13 11:22:22;;;;;;;5.70;2.40;;;;;;;12.95;61.98;97940.84;218950;1295;22560;-79
2023/03/13 11:27:59;;;;;;;7.30;2.60;;;;;;;13.06;62.21;97930.10;218671;1283;22579;-77
2023/03/13 11:33:08;;;;;;;6.60;2.50;;;;;;;13.24;61.92;97924.13;218758;1273;24421;-76
2023/03/13 11:38:35;;;;;;;6.90;2.20;;;;;;;13.32;62.08;97913.25;219343;1297;22615;-76
2023/03/13 11:43:48;;;;;;;6.10;2.40;;;;;;;13.33;61.11;97912.61;219150;1295;22580;-76
2023/03/13 11:49:35;;;;;;;7.70;2.70;;;;;;;13.30;60.72;97910.33;219402;1289;22971;-77
2023/03/13 11:55:22;;;;;;;5.70;2.60;;;;;;;13.31;60.82;97895.67;218840;1297;25337;-77
2023/03/13 12:00:43;;;;;;;6.40;2.30;;;;;;;13.24;60.15;97894.91;219002;1274;22589;-77
2023/03/13 12:05:57;;;;;;;6.70;2.40;;;;;;;13.11;59.68;97891.41;218766;1295;23942;-77
2023/03/13 12:11:12;;;;;;;4.10;2.30;;;;;;;12.93;59.56;97881.81;219255;1289;23286;-76
2023/03/13 12:16:22;;;;;;;4.80;2.50;;;;;;;12.77;59.66;97876.45;219331;1289;22542;-79
2023/03/13 12:21:31;;;;;;;;;;;;;;;12.61;60.19;97864.69;219158;1276;23943;-77
2023/03/13 12:26:43;;;;;;;5.70;2.90;;;;;;;12.48;60.80;97868.61;219026;1289;23329;-79
2023/03/13 12:32:25;;;;;;;4.80;2.50;;;;;;;12.27;60.96;97890.70;219186;1289;22683;-77
2023/03/13 12:38:01;;;;;;;5.90;2.70;;;;;;;12.00;61.60;97898.66;219175;1283;23046;-78
2023/03/13 12:43:16;;;;;;;4.30;2.30;;;;;;;11.73;63.01;97884.33;219113;1289;22573;-76
2023/03/13 12:48:45;;;;;;;5.10;2.60;;;;;;;11.49;63.46;97883.23;219392;1295;22509;-78
2023/03/13 12:54:07;;;;;;;3.50;2.20;;;;;;;11.28;63.48;97887.40;218884;1297;23045;-77
2023/03/13 12:59:18;;;;;;;4.20;2.40;;;;;;;11.10;64.30;97883.90;219033;1293;22553;-77
2023/03/13 13:04:42;;;;;;;4.80;2.60;;;;;;;10.97;64.67;97875.73;219200;1297;22611;-77
2023/03/13 13:10:01;;;;;;;5.90;3.20;;;;;;;10.88;64.84;97884.19;219060;1298;23267;-77
2023/03/13 13:15:11;;;;;;;4.10;3.00;;;;;;;10.81;65.08;97870.17;218780;1295;24169;-77
2023/03/13 13:20:37;;;;;;;5.20;2.90;;;;;;;10.78;65.48;97860.72;219237;1286;23854;-77
2023/03/13 13:25:42;;;;;;;5.10;3.20;;;;;;;10.76;65.44;97861.49;218959;1295;22555;-76
2023/03/13 13:30:49;;;;;;;7.40;3.30;;;;;;;10.74;64.95;97862.11;219052;1297;22549;-76
2023/03/13 13:36:08;;;;;;;4.80;3.20;;;;;;;10.73;64.58;97848.86;219123;1289;22568;-77
2023/03/13 13:41:11;;;;;;;5.80;3.50;;;;;;;10.72;64.46;97831.92;219126;1295;22559;-77
2023/03/13 13:46:32;;;;;;;5.00;3.00;;;;;;;10.72;64.51;97826.84;219212;1296;23958;-77
2023/03/13 13:51:40;;;;;;;6.70;3.30;;;;;;;10.69;64.26;97824.71;219255;1294;22559;-77
2023/03/13 13:56:58;;;;;;;5.30;3.30;;;;;;;10.64;64.26;97828.65;219208;1289;22558;-79
2023/03/13 14:02:48;;;;;;;;;;;;;;;;;;;;;
2023/03/13 14:08:31;;;;;;;5.60;3.90;;;;;;;10.42;65.71;97807.27;219633;1289;22543;-80
2023/03/13 14:13:34;;;;;;;7.60;4.50;;;;;;;10.33;66.89;97806.81;221018;1292;22589;-80
2023/03/13 14:18:40;;;;;;;7.80;4.80;;;;;;;10.30;66.83;97804.96;223111;1277;25714;-79
2023/03/13 14:23:46;;;;;;;7.60;4.70;;;;;;;10.30;67.19;97809.95;221215;1286;22585;-80
2023/03/13 14:28:54;;;;;;;8.40;5.30;;;;;;;10.34;67.23;97809.83;221266;1289;22565;-78
2023/03/13 14:34:16;;;;;;;7.30;4.30;;;;;;;10.42;67.26;97803.52;221166;1289;22597;-78
2023/03/13 14:39:37;;;;;;;6.90;4.40;;;;;;;10.58;66.79;97790.11;217887;1307;545111;-75
2023/03/13 14:44:41;;;;;;;7.10;3.80;;;;;;;10.67;66.62;97787.61;222915;1273;23664;-76
2023/03/13 14:49:46;;;;;;;7.40;4.70;;;;;;;10.74;66.41;97789.16;222759;1281;247518;-75
2023/03/13 14:55:27;;;;;;;4.20;3.00;;;;;;;10.84;66.12;97779.09;222974;1270;25351;-76
2023/03/13 15:00:32;;;;;;;4.60;2.90;;;;;;;10.96;65.80;97786.86;220789;1277;22896;-75
2023/03/13 15:05:35;;;;;;;6.20;2.90;;;;;;;11.03;66.04;97775.00;220449;1285;22536;-76
2023/03/13 15:10:39;;;;;;;3.20;2.40;;;;;;;11.06;65.66;97769.25;220463;1285;22578;-74
2023/03/13 15:15:42;;;;;;;4.60;3.00;;;;;;;11.06;65.71;97763.08;220237;1283;25368;-78
2023/03/13 15:21:13;;;;;;;4.00;2.90;;;;;;;11.04;65.74;97754.90;220313;1276;25477;-78
2023/03/13 15:26:16;;;;;;;4.60;2.50;;;;;;;10.99;65.83;97753.16;220213;1285;22542;-78
2023/03/13 15:31:22;;;;;;;4.00;2.80;;;;;;;10.96;65.70;97756.57;220054;1285;25256;-77
2023/03/13 15:36:27;;;;;;;4.90;2.90;;;;;;;10.92;65.79;97754.60;220551;1285;22629;-76
2023/03/13 15:41:29;;;;;;;4.00;3.00;;;;;;;10.88;65.83;97749.17;220295;1283;25358;-76
2023/03/13 15:46:32;;;;;;;5.30;2.70;;;;;;;10.86;65.78;97756.47;220365;1284;24304;-76
2023/03/13 15:51:34;;;;;;;3.80;2.80;;;;;;;10.84;65.65;97758.60;220381;1281;24233;-77
2023/03/13 15:56:37;;;;;;;3.40;2.40;;;;;;;10.84;65.72;97769.73;220302;1286;22643;-76
2023/03/13 16:01:40;;;;;;;4.70;2.70;;;;;;;10.83;65.57;97767.45;220290;1286;24399;-77
2023/03/13 16:06:43;;;;;;;5.10;3.30;;;;;;;10.83;65.77;97763.33;221837;1275;24199;-76
2023/03/13 16:11:47;;;;;;;5.40;3.40;;;;;;;10.83;65.64;97746.84;221572;1278;22586;-76
2023/03/13 16:16:51;;;;;;;4.70;3.30;;;;;;;10.83;65.84;97735.85;221267;1275;24231;-77
2023/03/13 16:21:54;;;;;;;3.80;2.90;;;;;;;10.83;65.64;97720.89;221543;1277;22527;-76
2023/03/13 16:26:56;;;;;;;6.30;2.90;;;;;;;10.82;66.07;97714.64;221416;1278;22680;-77
2023/03/13 16:31:59;;;;;;;4.80;3.60;;;;;;;10.82;66.03;97717.16;221409;1276;24229;-76
2023/03/13 16:37:01;;;;;;;5.10;2.90;;;;;;;10.80;65.98;97719.49;221517;1276;22556;-77
2023/03/13 16:42:03;;;;;;;5.50;2.80;;;;;;;10.78;66.09;97715.36;221467;1277;22524;-77
2023/03/13 16:47:19;;;;;;;5.60;2.90;;;;;;;10.78;66.28;97713.70;221555;1278;23805;-77
2023/03/13 16:52:22;;;;;;;4.80;2.90;;;;;;;10.78;66.26;97711.54;221342;1278;25446;-77
2023/03/13 16:57:25;;;;;;;6.10;3.50;;;;;;;10.76;66.62;97708.95;221524;1262;25870;-75
2023/03/13 17:02:29;;;;;;;4.80;3.30;;;;;;;10.71;66.74;97704.60;221620;1278;22615;-77
2023/03/13 17:07:31;;;;;;;6.70;3.70;;;;;;;10.69;66.63;97692.20;221514;1277;22541;-78
2023/03/13 17:12:33;;;;;;;4.50;3.30;;;;;;;10.70;66.91;97691.39;221625;1275;25111;-78
2023/03/13 17:17:37;;;;;;;6.10;4.00;;;;;;;10.71;67.08;97686.99;221358;1257;22566;-77
2023/03/13 17:22:40;;;;;;;5.90;3.90;;;;;;;10.69;67.03;97685.48;221615;1278;23427;-77
2023/03/13 17:27:46;;;;;;;7.00;4.10;;;;;;;10.67;66.87;97678.60;221432;1277;22564;-77
2023/03/13 17:32:49;;;;;;;11.40;5.60;;;;;;;10.66;67.08;97684.62;221520;1276;22536;-78
2023/03/13 17:37:52;;;;;;;8.00;5.30;;;;;;;10.63;67.24;97682.36;221212;1278;25311;-77
2023/03/13 17:42:55;;;;;;;7.90;5.00;;;;;;;10.56;67.19;97681.63;221375;1277;23945;-77
2023/03/13 17:47:57;;;;;;;8.30;4.60;;;;;;;10.47;67.30;97674.19;221350;1275;25413;-76
2023/03/13 17:52:59;;;;;;;10.00;5.70;;;;;;;10.34;67.65;97670.79;221269;1276;23396;-77
2023/03/13 17:58:03;;;;;;;9.20;5.00;;;;;;;10.23;67.87;97670.33;221225;1277;25483;-76
2023/03/13 18:03:05;;;;;;;10.20;6.00;;;;;;;10.13;67.88;97655.77;221343;1276;24355;-76
2023/03/13 18:08:10;;;;;;;10.10;6.20;;;;;;;10.05;68.04;97638.34;221062;1273;26392;-77
2023/03/13 18:13:12;;;;;;;12.50;7.20;;;;;;;10.00;67.89;97622.89;221155;1279;25314;-77
2023/03/13 18:18:16;;;;;;;12.80;6.10;;;;;;;9.99;67.75;97611.52;221221;1278;25142;-77
2023/03/13 18:23:18;;;;;;;9.80;5.50;;;;;;;9.97;67.72;97610.92;221310;1276;26524;-77
2023/03/13 18:28:23;;;;;;;13.90;7.20;;;;;;;9.94;67.50;97610.39;221373;1279;25170;-77
2023/03/13 18:33:25;;;;;;;7.80;5.10;;;;;;;9.85;67.59;97613.92;221266;1276;25355;-75
2023/03/13 18:38:31;;;;;;;6.90;5.40;;;;;;;9.74;67.85;97609.58;221300;1274;22711;-76
2023/03/13 18:43:33;;;;;;;9.90;5.70;;;;;;;9.63;67.48;97595.43;221319;1276;22545;-78
2023/03/13 18:48:36;;;;;;;9.10;5.10;;;;;;;9.54;67.63;97596.44;221993;1275;25280;-76
2023/03/13 18:53:39;;;;;;;10.40;5.90;;;;;;;9.47;67.65;97591.91;221923;1273;22649;-77
2023/03/13 18:58:42;;;;;;;8.40;5.30;;;;;;;9.39;67.66;97590.50;221755;1271;22667;-76
2023/03/13 19:03:45;;;;;;;9.30;4.60;;;;;;;9.38;67.82;97593.52;221883;1274;24946;-76
2023/03/13 19:08:49;;;;;;;5.20;3.80;;;;;;;9.45;67.59;97596.70;221944;1275;25335;-75
2023/03/13 19:13:52;;;;;;;7.10;4.20;;;;;;;9.54;67.66;97590.15;221969;1275;24209;-76
2023/03/13 19:18:56;;;;;;;8.80;4.50;;;;;;;9.57;67.39;97589.05;222133;1275;24074;-76
2023/03/13 19:23:58;;;;;;;7.70;4.20;;;;;;;9.61;67.04;97587.25;221984;1275;22534;-76
2023/03/13 19:29:01;;;;;;;8.20;4.30;;;;;;;9.68;67.09;97574.50;221861;1274;22639;-76
2023/03/13 19:34:03;;;;;;;5.50;3.90;;;;;;;9.81;66.81;97573.90;221949;1271;22541;-76
2023/03/13 19:39:19;;;;;;;5.90;4.00;;;;;;;9.97;66.44;97570.98;222015;1274;22547;-76
2023/03/13 19:44:23;;;;;;;6.30;3.50;;;;;;;10.15;66.18;97572.86;222069;1274;25514;-77
2023/03/13 19:49:25;;;;;;;5.60;3.60;;;;;;;10.30;65.55;97565.48;222030;1273;23007;-77
2023/03/13 19:54:27;;;;;;;6.60;4.00;;;;;;;10.39;65.48;97554.94;221950;1272;22523;-77
2023/03/13 19:59:30;;;;;;;6.20;3.80;;;;;;;10.48;65.24;97560.05;222096;1271;22517;-76
2023/03/13 20:04:33;;;;;;;6.50;3.90;;;;;;;10.55;64.61;97546.38;222041;1273;24277;-76
2023/03/13 20:09:35;;;;;;;7.00;3.60;;;;;;;10.57;64.37;97535.86;221923;1273;22518;-78
2023/03/13 20:14:38;;;;;;;6.50;3.50;;;;;;;10.65;64.09;97531.91;221799;1274;22534;-76
2023/03/13 20:19:41;;;;;;;5.20;3.40;;;;;;;10.68;64.04;97532.44;221964;1275;22532;-77
2023/03/13 20:24:43;;;;;;;5.90;3.80;;;;;;;10.71;64.02;97529.63;221938;1270;22559;-77
2023/03/13 20:29:45;;;;;;;5.90;3.40;;;;;;;10.69;64.04;97530.45;221911;1271;22523;-77
2023/03/13 20:34:47;;;;;;;7.20;3.50;;;;;;;10.67;63.75;97526.77;221944;1271;22590;-76
2023/03/13 20:39:49;;;;;;;8.60;4.50;;;;;;;10.60;63.96;97504.73;221961;1274;24159;-77
2023/03/13 20:44:54;;;;;;;13.10;6.90;;;;;;;10.46;64.11;97493.73;221878;1275;22658;-77
2023/03/13 20:49:56;;;;;;;11.10;6.60;;;;;;;10.29;64.34;97493.30;222179;1275;24441;-76
2023/03/13 20:54:59;;;;;;;12.70;6.70;;;;;;;10.11;64.40;97494.61;222013;1271;25818;-76
2023/03/13 21:00:06;;;;;;;14.60;7.20;;;;;;;9.92;64.41;97498.73;222118;1252;23946;-76
2023/03/13 21:05:08;;;;;;;13.00;6.80;;;;;;;9.72;64.32;97496.94;221877;1258;22605;-77
2023/03/13 21:10:16;;;;;;;13.00;7.40;;;;;;;9.55;64.97;97473.17;221987;1274;23783;-75
2023/03/13 21:15:20;;;;;;;12.00;6.90;;;;;;;9.39;64.89;97468.27;222001;1273;22635;-76
2023/03/13 21:20:24;;;;;;;11.40;7.00;;;;;;;9.25;65.21;97476.42;222019;1273;23722;-76
2023/03/13 21:25:26;;;;;;;13.30;7.50;;;;;;;9.13;65.50;97482.17;221917;1271;23312;-76
2023/03/13 21:30:30;;;;;;;14.30;8.50;;;;;;;9.00;65.68;97469.23;221906;1275;22645;-75
2023/03/13 21:35:32;;;;;;;15.90;8.20;;;;;;;8.86;65.87;97461.31;221884;1274;25368;-75
2023/03/13 21:40:34;;;;;;;17.80;9.10;;;;;;;8.73;66.06;97465.21;221922;1275;24234;-76
2023/03/13 21:45:37;;;;;;;16.00;9.50;;;;;;;8.61;66.51;97465.78;221982;1274;22547;-76
2023/03/13 21:50:40;;;;;;;19.10;10.30;;;;;;;8.50;66.46;97458.36;222287;1271;24369;-76
2023/03/13 21:55:42;;;;;;;22.00;11.60;;;;;;;8.39;66.54;97444.79;221908;1275;22547;-75
2023/03/13 22:00:44;;;;;;;16.60;9.50;;;;;;;8.28;66.77;97420.27;221766;1274;25214;-75
2023/03/13 22:05:47;;;;;;;15.10;8.80;;;;;;;8.19;67.07;97405.02;221909;1273;22539;-76
2023/03/13 22:10:54;;;;;;;19.90;10.20;;;;;;;8.11;67.33;97390.60;222015;1275;22654;-75
2023/03/13 22:15:56;;;;;;;13.50;7.40;;;;;;;8.06;67.19;97384.05;221618;1275;26507;-76
2023/03/13 22:20:59;;;;;;;10.20;6.20;;;;;;;8.07;67.28;97374.54;221937;1273;22531;-76
2023/03/13 22:26:02;;;;;;;10.00;5.60;;;;;;;8.12;67.22;97372.55;221890;1271;22562;-77
2023/03/13 22:31:07;;;;;;;9.30;6.20;;;;;;;8.21;67.46;97364.61;222262;1271;24284;-76
2023/03/13 22:36:10;;;;;;;12.60;5.70;;;;;;;8.25;67.20;97353.73;221991;1275;22533;-76
2023/03/13 22:41:16;;;;;;;11.50;6.10;;;;;;;8.24;67.11;97357.48;221983;1270;22523;-75
2023/03/13 22:46:21;;;;;;;9.70;5.50;;;;;;;8.21;67.24;97357.17;221902;1274;23749;-76
2023/03/13 22:51:25;;;;;;;9.50;5.10;;;;;;;8.20;67.61;97367.36;221920;1273;23008;-76
2023/03/13 22:56:47;;;;;;;10.60;5.40;;;;;;;8.28;67.79;97368.45;222007;1275;22556;-77
2023/03/13 23:01:49;;;;;;;12.90;6.70;;;;;;;8.41;67.13;97363.86;221953;1274;24289;-77
2023/03/13 23:06:52;;;;;;;14.40;7.30;;;;;;;8.43;67.20;97357.83;221924;1275;22533;-76
2023/03/13 23:11:54;;;;;;;13.80;7.30;;;;;;;8.38;67.08;97349.16;222020;1271;22519;-77
2023/03/13 23:16:57;;;;;;;15.00;7.30;;;;;;;8.35;66.83;97334.56;221768;1275;22547;-76
2023/03/13 23:21:59;;;;;;;16.90;8.00;;;;;;;8.28;66.90;97323.23;221925;1273;22527;-76
2023/03/13 23:27:02;;;;;;;13.20;7.30;;;;;;;8.19;67.13;97332.90;221915;1275;22576;-77
2023/03/13 23:32:05;;;;;;;12.30;6.70;;;;;;;8.11;67.44;97336.54;221879;1274;24202;-76
2023/03/13 23:37:07;;;;;;;13.50;6.10;;;;;;;8.06;67.31;97326.06;221751;1274;22539;-76
2023/03/13 23:42:09;;;;;;;11.90;5.70;;;;;;;8.01;67.78;97325.55;221923;1272;22942;-76
2023/03/13 23:47:12;;;;;;;14.40;7.90;;;;;;;7.96;67.77;97311.91;221814;1272;22746;-76
2023/03/13 23:52:15;;;;;;;13.80;6.00;;;;;;;7.92;68.07;97298.08;221932;1271;22611;-76
2023/03/13 23:57:18;;;;;;;9.20;5.80;;;;;;;7.89;68.21;97284.36;221733;1259;24253;-76
